createdAt,value
2019-02-02T00:02:08.635Z,37.83
2019-02-02T00:04:37.488Z,41.90
2019-02-02T00:07:06.322Z,34.13
2019-02-02T00:09:35.087Z,40.60
2019-02-02T00:12:03.910Z,32.33
2019-02-02T00:14:32.752Z,38.00
2019-02-02T00:17:01.536Z,41.23
2019-02-02T00:19:30.320Z,35.50
2019-02-02T00:21:59.167Z,34.60
2019-02-02T00:24:27.972Z,41.63
2019-02-02T00:26:56.765Z,34.80
2019-02-02T00:29:25.553Z,35.67
2019-02-02T00:31:54.341Z,37.23
2019-02-02T00:34:23.132Z,40.40
2019-02-02T00:36:52.009Z,36.80
2019-02-02T00:39:20.811Z,35.57
2019-02-02T00:41:49.644Z,37.87
2019-02-02T00:44:18.517Z,33.63
2019-02-02T00:46:47.378Z,33.40
2019-02-02T00:49:16.215Z,36.83
2019-02-02T00:51:45.016Z,38.07
2019-02-02T00:54:13.877Z,42.90
2019-02-02T00:56:42.844Z,39.67
2019-02-02T00:59:11.671Z,38.43
2019-02-02T01:01:40.524Z,43.27
2019-02-02T01:04:09.333Z,43.40
2019-02-02T01:06:38.118Z,41.73
2019-02-02T01:09:13.167Z,39.17
2019-02-02T01:11:42.008Z,47.30
2019-02-02T01:14:10.808Z,38.40
2019-02-02T01:16:39.648Z,46.63
2019-02-02T01:19:08.566Z,44.43
2019-02-02T01:21:37.400Z,44.83
2019-02-02T01:24:06.190Z,48.30
2019-02-02T01:26:35.039Z,43.07
2019-02-02T01:29:03.867Z,42.33
2019-02-02T01:31:32.643Z,41.53
2019-02-02T01:34:01.460Z,42.50
2019-02-02T01:36:30.274Z,41.67
2019-02-02T01:38:59.053Z,43.63
2019-02-02T01:41:27.838Z,43.00
2019-02-02T01:43:56.626Z,41.07
2019-02-02T01:46:25.442Z,55.17
2019-02-02T01:48:54.210Z,48.77
2019-02-02T01:51:23.053Z,53.20
2019-02-02T01:53:51.876Z,50.07
2019-02-02T01:56:20.647Z,44.67
2019-02-02T01:58:49.476Z,46.27
2019-02-02T02:01:18.247Z,49.17
2019-02-02T02:03:47.073Z,37.50
2019-02-02T02:06:15.910Z,49.33
2019-02-02T02:08:44.800Z,49.03
2019-02-02T02:11:13.703Z,46.20
2019-02-02T02:13:42.567Z,54.67
2019-02-02T02:16:11.358Z,46.63
2019-02-02T02:18:40.233Z,42.80
2019-02-02T02:21:09.009Z,49.10
2019-02-02T02:23:37.836Z,51.23
2019-02-02T02:26:06.722Z,46.77
2019-02-02T02:28:35.551Z,45.60
2019-02-02T02:31:04.335Z,47.77
2019-02-02T02:33:33.205Z,47.50
2019-02-02T02:36:02.049Z,40.80
2019-02-02T02:38:30.904Z,45.30
2019-02-02T02:40:59.766Z,42.30
2019-02-02T02:43:28.594Z,45.43
2019-02-02T02:45:57.381Z,47.80
2019-02-02T02:48:26.190Z,52.20
2019-02-02T02:50:55.094Z,49.80
2019-02-02T02:53:23.907Z,50.47
2019-02-02T02:55:52.655Z,48.10
2019-02-02T02:58:21.432Z,50.70
2019-02-02T03:00:50.223Z,51.27
2019-02-02T03:03:19.113Z,46.00
2019-02-02T03:05:47.982Z,50.23
2019-02-02T03:08:16.844Z,52.70
2019-02-02T03:10:45.712Z,50.83
2019-02-02T03:13:14.476Z,53.80
2019-02-02T03:15:43.383Z,51.03
2019-02-02T03:18:12.288Z,55.07
2019-02-02T03:20:41.120Z,54.80
2019-02-02T03:23:09.954Z,59.03
2019-02-02T03:25:38.778Z,53.30
2019-02-02T03:28:07.634Z,70.07
2019-02-02T03:30:38.119Z,54.60
2019-02-02T03:33:07.066Z,53.77
2019-02-02T03:35:36.045Z,59.23
2019-02-02T03:38:04.978Z,61.10
2019-02-02T03:40:33.863Z,61.30
2019-02-02T03:43:02.685Z,56.93
2019-02-02T03:45:31.469Z,61.73
2019-02-02T03:48:00.288Z,57.03
2019-02-02T03:50:29.210Z,57.87
2019-02-02T03:52:57.981Z,61.63
2019-02-02T03:55:26.753Z,61.37
2019-02-02T03:57:55.545Z,63.50
2019-02-02T04:00:24.357Z,61.70
2019-02-02T04:02:53.253Z,63.17
2019-02-02T04:05:24.430Z,64.50
2019-02-02T04:07:53.219Z,62.23
2019-02-02T04:10:21.982Z,65.23
2019-02-02T04:12:50.815Z,62.90
2019-02-02T04:15:19.624Z,66.17
2019-02-02T04:17:48.431Z,75.57
2019-02-02T04:20:18.980Z,67.07
2019-02-02T04:22:47.855Z,68.17
2019-02-02T04:25:17.465Z,65.40
2019-02-02T04:27:46.280Z,70.80
2019-02-02T04:30:19.311Z,75.07
2019-02-02T04:32:48.152Z,70.03
2019-02-02T04:35:16.991Z,68.83
2019-02-02T04:37:45.834Z,73.47
2019-02-02T04:40:14.654Z,72.37
2019-02-02T04:42:43.473Z,71.93
2019-02-02T04:45:12.811Z,71.53
2019-02-02T04:47:41.641Z,66.03
2019-02-02T04:50:12.617Z,69.93
2019-02-02T04:52:41.393Z,73.63
2019-02-02T04:55:10.686Z,77.37
2019-02-02T04:57:39.519Z,74.77
2019-02-02T05:00:11.551Z,71.70
2019-02-02T05:02:40.395Z,69.80
2019-02-02T05:05:11.104Z,68.93
2019-02-02T05:07:39.869Z,75.67
2019-02-02T05:10:10.387Z,73.87
2019-02-02T05:12:39.213Z,63.23
2019-02-02T05:15:08.021Z,71.43
2019-02-02T05:17:36.855Z,78.13
2019-02-02T05:20:06.080Z,66.43
2019-02-02T05:22:34.971Z,73.80
2019-02-02T05:25:03.734Z,72.07
2019-02-02T05:27:32.515Z,70.87
2019-02-02T05:30:01.391Z,73.27
2019-02-02T05:32:30.242Z,73.93
2019-02-02T05:34:59.031Z,70.17
2019-02-02T05:37:27.947Z,79.70
2019-02-02T05:39:56.741Z,76.00
2019-02-02T05:42:25.624Z,76.80
2019-02-02T05:44:54.487Z,75.17
2019-02-02T05:47:23.325Z,67.37
2019-02-02T05:49:52.151Z,83.73
2019-02-02T05:52:20.976Z,76.77
2019-02-02T05:54:49.820Z,80.27
2019-02-02T05:57:18.607Z,73.50
2019-02-02T05:59:52.823Z,81.57
2019-02-02T06:02:16.228Z,83.23
2019-02-02T06:04:45.000Z,82.90
2019-02-02T06:07:13.858Z,72.40
2019-02-02T06:09:42.663Z,76.53
2019-02-02T06:12:11.435Z,72.17
2019-02-02T06:14:40.295Z,73.40
2019-02-02T06:17:09.211Z,79.10
2019-02-02T06:19:38.088Z,72.67
2019-02-02T06:22:06.967Z,79.03
2019-02-02T06:24:35.775Z,83.07
2019-02-02T06:27:04.652Z,78.37
2019-02-02T06:29:33.426Z,75.97
2019-02-02T06:32:11.406Z,74.20
2019-02-02T06:34:31.039Z,83.30
2019-02-02T06:36:59.812Z,76.07
2019-02-02T06:39:28.670Z,77.67
2019-02-02T06:41:57.559Z,80.20
2019-02-02T06:44:26.345Z,77.33
2019-02-02T06:46:55.191Z,79.50
2019-02-02T06:49:24.018Z,75.83
2019-02-02T06:51:52.830Z,75.77
2019-02-02T06:54:21.666Z,73.40
2019-02-02T06:56:50.470Z,76.80
2019-02-02T06:59:19.260Z,81.70
2019-02-02T07:01:48.054Z,78.17
2019-02-02T07:04:17.039Z,79.93
2019-02-02T07:06:45.847Z,74.63
2019-02-02T07:09:14.629Z,79.57
2019-02-02T07:11:43.561Z,80.37
2019-02-02T07:14:12.342Z,83.90
2019-02-02T07:16:41.226Z,77.93
2019-02-02T07:19:10.011Z,68.50
2019-02-02T07:21:38.803Z,71.00
2019-02-02T07:24:12.053Z,77.00
2019-02-02T07:26:40.798Z,74.13
2019-02-02T07:29:09.722Z,81.97
2019-02-02T07:31:38.639Z,80.97
2019-02-02T07:34:07.443Z,75.60
2019-02-02T07:36:36.229Z,81.50
2019-02-02T07:39:06.797Z,80.77
2019-02-02T07:41:35.568Z,90.00
2019-02-02T07:44:04.701Z,75.57
2019-02-02T07:46:33.623Z,88.13
2019-02-02T07:49:02.423Z,84.33
2019-02-02T07:51:31.273Z,76.27
2019-02-02T07:54:00.126Z,78.57
2019-02-02T07:56:28.974Z,86.43
2019-02-02T07:59:00.080Z,77.97
2019-02-02T08:01:29.907Z,78.50
2019-02-02T08:03:59.108Z,79.47
2019-02-02T08:06:27.897Z,80.67
2019-02-02T08:08:56.782Z,76.30
2019-02-02T08:11:25.610Z,80.53
2019-02-02T08:13:54.464Z,83.93
2019-02-02T08:16:23.374Z,82.03
2019-02-02T08:18:52.143Z,78.30
2019-02-02T08:21:22.473Z,76.57
2019-02-02T08:23:51.329Z,73.47
2019-02-02T08:26:20.126Z,87.20
2019-02-02T08:28:49.024Z,81.87
2019-02-02T08:31:17.863Z,92.37
2019-02-02T08:33:46.704Z,87.67
2019-02-02T08:36:15.483Z,84.20
2019-02-02T08:38:44.347Z,82.10
2019-02-02T08:41:13.223Z,94.10
2019-02-02T08:43:41.995Z,78.00
2019-02-02T08:46:10.805Z,84.13
2019-02-02T08:48:39.592Z,83.83
2019-02-02T08:51:08.371Z,93.83
2019-02-02T08:53:37.354Z,84.77
2019-02-02T08:56:06.264Z,82.33
2019-02-02T08:58:35.099Z,84.43
2019-02-02T09:01:04.519Z,92.87
2019-02-02T09:03:32.721Z,97.37
2019-02-02T09:06:01.504Z,87.20
2019-02-02T09:08:30.354Z,87.77
2019-02-02T09:10:59.162Z,82.83
2019-02-02T09:13:27.983Z,94.03
2019-02-02T09:15:56.793Z,92.37
2019-02-02T09:18:25.756Z,94.30
2019-02-02T09:20:54.652Z,93.10
2019-02-02T09:23:23.428Z,90.07
2019-02-02T09:25:59.388Z,93.33
2019-02-02T09:28:28.255Z,93.60
2019-02-02T09:30:57.095Z,93.63
2019-02-02T09:33:25.901Z,93.80
2019-02-02T09:35:54.725Z,93.07
2019-02-02T09:38:23.550Z,94.30
2019-02-02T09:40:52.331Z,99.83
2019-02-02T09:43:21.134Z,101.10
2019-02-02T09:45:49.955Z,97.90
2019-02-02T09:48:19.290Z,95.17
2019-02-02T09:50:48.074Z,104.63
2019-02-02T09:53:16.895Z,94.37
2019-02-02T09:55:45.755Z,96.63
2019-02-02T09:58:14.512Z,99.73
2019-02-02T10:00:43.469Z,100.03
2019-02-02T10:03:12.274Z,90.60
2019-02-02T10:05:41.204Z,106.67
2019-02-02T10:08:09.975Z,98.80
2019-02-02T10:10:38.897Z,104.03
2019-02-02T10:13:08.073Z,98.57
2019-02-02T10:15:36.971Z,97.37
2019-02-02T10:18:06.168Z,94.93
2019-02-02T10:20:34.952Z,102.17
2019-02-02T10:23:03.725Z,93.67
2019-02-02T10:25:32.525Z,101.70
2019-02-02T10:28:01.339Z,97.80
2019-02-02T10:30:34.056Z,101.93
2019-02-02T10:33:02.831Z,99.67
2019-02-02T10:35:31.711Z,100.40
2019-02-02T10:38:00.500Z,98.97
2019-02-02T10:40:30.016Z,94.03
2019-02-02T10:42:58.142Z,96.83
2019-02-02T10:45:26.983Z,94.63
2019-02-02T10:47:55.787Z,102.80
2019-02-02T10:50:24.627Z,105.50
2019-02-02T10:52:53.431Z,103.50
2019-02-02T10:55:22.262Z,91.13
2019-02-02T10:57:51.123Z,99.80
2019-02-02T11:00:22.858Z,103.97
2019-02-02T11:02:51.675Z,92.83
2019-02-02T11:05:20.466Z,87.00
2019-02-02T11:07:49.265Z,88.00
2019-02-02T11:10:20.394Z,91.00
2019-02-02T11:12:49.145Z,89.13
2019-02-02T11:15:18.374Z,90.33
2019-02-02T11:17:47.126Z,82.53
2019-02-02T11:20:18.188Z,86.87
2019-02-02T11:22:46.917Z,85.47
2019-02-02T11:25:15.870Z,82.33
2019-02-02T11:27:44.573Z,87.83
2019-02-02T11:30:14.473Z,90.03
2019-02-02T11:32:43.813Z,90.70
2019-02-02T11:35:13.575Z,86.60
2019-02-02T11:37:42.382Z,85.70
2019-02-02T11:40:15.835Z,94.37
2019-02-02T11:42:44.617Z,87.47
2019-02-02T11:45:13.477Z,92.10
2019-02-02T11:47:42.465Z,87.53
2019-02-02T11:50:12.796Z,92.20
2019-02-02T11:52:42.081Z,99.40
2019-02-02T11:55:11.822Z,102.67
2019-02-02T11:57:40.658Z,91.33
2019-02-02T12:00:17.726Z,92.27
2019-02-02T12:02:49.437Z,85.17
2019-02-02T12:05:15.348Z,88.43
2019-02-02T12:07:44.126Z,85.33
2019-02-02T12:10:14.730Z,92.33
2019-02-02T12:12:43.611Z,95.03
2019-02-02T12:15:13.860Z,93.67
2019-02-02T12:17:42.696Z,94.40
2019-02-02T12:20:13.102Z,92.13
2019-02-02T12:22:41.895Z,95.23
2019-02-02T12:25:10.780Z,89.83
2019-02-02T12:27:39.592Z,88.20
2019-02-02T12:30:11.137Z,86.00
2019-02-02T12:32:39.917Z,89.00
2019-02-02T12:35:10.903Z,84.73
2019-02-02T12:37:39.690Z,85.23
2019-02-02T12:40:09.606Z,81.43
2019-02-02T12:42:38.544Z,83.73
2019-02-02T12:45:10.769Z,85.93
2019-02-02T12:47:39.599Z,86.13
2019-02-02T12:50:09.151Z,86.57
2019-02-02T12:52:38.606Z,82.03
2019-02-02T12:55:07.467Z,85.97
2019-02-02T12:57:36.244Z,87.30
2019-02-02T13:00:07.407Z,82.43
2019-02-02T13:02:38.252Z,82.00
2019-02-02T13:05:05.454Z,84.93
2019-02-02T13:07:34.304Z,86.07
2019-02-02T13:10:03.143Z,87.50
2019-02-02T13:12:31.977Z,90.10
2019-02-02T13:15:00.841Z,91.13
2019-02-02T13:17:29.705Z,93.40
2019-02-02T13:19:58.547Z,90.23
2019-02-02T13:22:27.445Z,82.43
2019-02-02T13:24:56.244Z,87.07
2019-02-02T13:27:25.054Z,84.10
2019-02-02T13:29:53.896Z,85.93
2019-02-02T13:32:22.708Z,85.10
2019-02-02T13:34:51.491Z,86.37
2019-02-02T13:37:20.400Z,80.70
2019-02-02T13:39:49.213Z,73.67
2019-02-02T13:42:18.005Z,81.33
2019-02-02T13:44:46.818Z,72.60
2019-02-02T13:47:15.648Z,77.70
2019-02-02T13:49:44.727Z,74.20
2019-02-02T13:52:13.577Z,75.43
2019-02-02T13:54:42.409Z,79.80
2019-02-02T13:57:11.262Z,70.73
2019-02-02T13:59:40.164Z,66.53
2019-02-02T14:02:09.169Z,70.13
2019-02-02T14:04:38.057Z,74.87
2019-02-02T14:07:17.441Z,75.07
2019-02-02T14:09:35.782Z,70.07
2019-02-02T14:12:04.622Z,70.10
2019-02-02T14:14:33.752Z,69.30
2019-02-02T14:17:02.559Z,65.17
2019-02-02T14:19:31.463Z,68.33
2019-02-02T14:22:00.157Z,69.40
2019-02-02T14:24:29.032Z,66.63
2019-02-02T14:26:57.843Z,66.90
2019-02-02T14:29:26.728Z,61.53
2019-02-02T14:31:55.676Z,55.00
2019-02-02T14:34:24.528Z,62.70
2019-02-02T14:36:53.318Z,59.27
2019-02-02T14:39:22.247Z,63.47
2019-02-02T14:41:51.199Z,67.20
2019-02-02T14:44:19.956Z,57.03
2019-02-02T14:46:48.768Z,59.30
2019-02-02T14:49:17.600Z,55.57
2019-02-02T14:51:46.426Z,60.40
2019-02-02T14:54:15.251Z,64.40
2019-02-02T14:56:47.985Z,56.47
2019-02-02T14:59:12.815Z,59.17
2019-02-02T15:01:41.598Z,68.50
2019-02-02T15:04:10.440Z,63.27
2019-02-02T15:06:39.322Z,66.53
2019-02-02T15:09:08.503Z,60.90
2019-02-02T15:11:37.363Z,61.87
2019-02-02T15:14:06.211Z,58.97
2019-02-02T15:16:34.986Z,64.63
2019-02-02T15:19:03.853Z,68.73
2019-02-02T15:21:32.750Z,62.93
2019-02-02T15:24:01.562Z,62.60
2019-02-02T15:26:30.364Z,69.93
2019-02-02T15:28:59.165Z,68.00
2019-02-02T15:31:27.956Z,68.43
2019-02-02T15:33:56.735Z,69.13
2019-02-02T15:36:25.678Z,67.20
2019-02-02T15:38:54.451Z,72.33
2019-02-02T15:41:23.328Z,75.47
2019-02-02T15:43:52.135Z,70.87
2019-02-02T15:46:20.983Z,80.10
2019-02-02T15:48:49.902Z,75.97
2019-02-02T15:51:18.714Z,81.37
2019-02-02T15:53:48.841Z,88.93
2019-02-02T15:56:16.334Z,93.93
2019-02-02T15:58:45.176Z,87.27
2019-02-02T16:01:14.098Z,94.50
2019-02-02T16:06:18.098Z,94.33
2019-02-02T16:08:46.980Z,92.80
2019-02-02T16:11:15.760Z,96.10
2019-02-02T16:13:44.599Z,102.03
2019-02-02T16:16:14.277Z,92.67
2019-02-02T16:18:43.154Z,98.10
2019-02-02T16:21:12.015Z,104.50
2019-02-02T16:23:40.798Z,101.27
2019-02-02T16:26:09.666Z,95.27
2019-02-02T16:28:38.583Z,102.87
2019-02-02T16:31:07.344Z,98.67
2019-02-02T16:33:36.224Z,100.70
2019-02-02T16:36:05.159Z,95.70
2019-02-02T16:38:33.942Z,103.83
2019-02-02T16:41:02.831Z,101.00
2019-02-02T16:43:31.741Z,99.40
2019-02-02T16:46:01.108Z,104.43
2019-02-02T16:48:29.886Z,91.83
2019-02-02T16:50:58.709Z,98.97
2019-02-02T16:53:27.565Z,93.23
2019-02-02T16:55:56.354Z,91.67
2019-02-02T16:58:25.207Z,102.57
2019-02-02T17:00:53.999Z,95.90
2019-02-02T17:03:22.824Z,100.07
2019-02-02T17:05:51.615Z,86.80
2019-02-02T17:08:20.492Z,88.63
2019-02-02T17:10:49.300Z,94.33
2019-02-02T17:13:18.126Z,102.00
2019-02-02T17:15:46.953Z,103.70
2019-02-02T17:18:24.658Z,82.80
2019-02-02T17:20:53.549Z,88.00
2019-02-02T17:23:22.460Z,84.60
2019-02-02T17:25:51.295Z,83.33
2019-02-02T17:28:20.214Z,93.77
2019-02-02T17:30:49.082Z,87.07
2019-02-02T17:33:17.879Z,91.17
2019-02-02T17:35:46.685Z,97.17
2019-02-02T17:38:15.483Z,90.77
2019-02-02T17:40:44.277Z,100.40
2019-02-02T17:43:13.133Z,86.87
2019-02-02T17:45:41.934Z,93.27
2019-02-02T17:48:12.987Z,95.40
2019-02-02T17:50:39.567Z,86.07
2019-02-02T17:53:08.372Z,85.10
2019-02-02T17:55:37.152Z,91.57
2019-02-02T17:58:07.224Z,94.60
2019-02-02T18:00:41.600Z,90.20
2019-02-02T18:03:10.461Z,108.40
2019-02-02T18:05:39.253Z,101.53
2019-02-02T18:08:08.125Z,101.30
2019-02-02T18:10:36.987Z,95.30
2019-02-02T18:13:05.796Z,96.47
2019-02-02T18:15:34.615Z,94.33
2019-02-02T18:18:03.402Z,95.00
2019-02-02T18:20:32.298Z,93.23
2019-02-02T18:23:01.130Z,87.43
2019-02-02T18:25:29.942Z,103.60
2019-02-02T18:27:58.793Z,97.10
2019-02-02T18:30:27.590Z,91.10
2019-02-02T18:32:56.444Z,91.40
2019-02-02T18:35:25.259Z,95.87
2019-02-02T18:37:54.135Z,97.30
2019-02-02T18:40:23.064Z,102.10
2019-02-02T18:42:51.851Z,101.03
2019-02-02T18:45:22.673Z,100.30
2019-02-02T18:47:51.507Z,100.77
2019-02-02T18:50:20.303Z,111.57
2019-02-02T18:52:49.240Z,98.53
2019-02-02T18:55:20.914Z,108.13
2019-02-02T18:57:49.812Z,100.77
2019-02-02T19:00:19.470Z,117.23
2019-02-02T19:02:48.307Z,111.47
2019-02-02T19:05:17.285Z,102.17
2019-02-02T19:07:45.959Z,104.50
2019-02-02T19:10:17.327Z,115.37
2019-02-02T19:12:46.586Z,122.53
2019-02-02T19:15:15.389Z,127.23
2019-02-02T19:17:44.181Z,131.97
2019-02-02T19:20:15.451Z,130.40
2019-02-02T19:22:44.353Z,131.63
2019-02-02T19:25:13.142Z,129.63
2019-02-02T19:27:41.951Z,132.10
2019-02-02T19:30:14.503Z,112.60
2019-02-02T19:32:43.430Z,126.10
2019-02-02T19:35:16.090Z,130.97
2019-02-02T19:37:41.033Z,126.10
2019-02-02T19:40:10.470Z,146.50
2019-02-02T19:42:39.325Z,135.07
2019-02-02T19:45:09.277Z,136.83
2019-02-02T19:47:38.105Z,149.47
2019-02-02T19:50:08.341Z,143.63
2019-02-02T19:52:40.178Z,143.73
2019-02-02T19:55:14.332Z,135.57
2019-02-02T19:57:35.253Z,131.10
2019-02-02T20:00:05.284Z,142.40
2019-02-02T20:02:34.068Z,125.73
2019-02-02T20:05:02.865Z,145.10
2019-02-02T20:07:31.690Z,159.20
2019-02-02T20:10:00.467Z,151.30
2019-02-02T20:12:29.252Z,157.53
2019-02-02T20:14:58.674Z,167.60
2019-02-02T20:17:27.443Z,163.30
2019-02-02T20:19:56.262Z,150.63
2019-02-02T20:22:25.163Z,150.40
2019-02-02T20:24:53.966Z,160.90
2019-02-02T20:27:22.835Z,149.53
2019-02-02T20:29:51.638Z,145.03
2019-02-02T20:32:20.545Z,131.30
2019-02-02T20:34:49.314Z,136.13
2019-02-02T20:37:18.501Z,163.10
2019-02-02T20:39:47.363Z,131.93
2019-02-02T20:42:16.145Z,123.37
2019-02-02T20:44:44.976Z,142.57
2019-02-02T20:47:13.751Z,131.03
2019-02-02T20:49:42.618Z,147.07
2019-02-02T20:52:11.528Z,143.03
2019-02-02T20:54:40.360Z,139.03
2019-02-02T20:57:09.186Z,152.90
2019-02-02T20:59:38.055Z,140.63
2019-02-02T21:02:06.892Z,161.50
2019-02-02T21:04:35.768Z,151.10
2019-02-02T21:07:04.630Z,135.03
2019-02-02T21:09:33.447Z,132.90
2019-02-02T21:12:02.296Z,156.27
2019-02-02T21:14:31.096Z,145.93
2019-02-02T21:16:59.958Z,134.70
2019-02-02T21:19:28.883Z,135.17
2019-02-02T21:21:57.702Z,145.50
2019-02-02T21:24:27.241Z,141.87
2019-02-02T21:26:55.356Z,140.33
2019-02-02T21:29:24.165Z,139.80
2019-02-02T21:31:52.957Z,133.73
2019-02-02T21:34:22.602Z,149.17
2019-02-02T21:36:51.473Z,134.40
2019-02-02T21:39:20.390Z,132.73
2019-02-02T21:41:49.267Z,138.23
2019-02-02T21:44:18.125Z,135.63
2019-02-02T21:46:46.954Z,157.40
2019-02-02T21:49:15.779Z,136.90
2019-02-02T21:51:44.582Z,138.53
2019-02-02T21:54:13.474Z,145.37
2019-02-02T21:56:42.323Z,138.83
2019-02-02T21:59:11.238Z,139.63
2019-02-02T22:01:40.082Z,140.67
2019-02-02T22:04:09.061Z,148.53
2019-02-02T22:06:38.962Z,138.13
2019-02-02T22:09:08.236Z,146.40
2019-02-02T22:11:37.022Z,137.53
2019-02-02T22:14:05.871Z,128.23
2019-02-02T22:16:34.683Z,130.80
2019-02-02T22:19:03.497Z,125.97
2019-02-02T22:21:32.284Z,130.87
2019-02-02T22:24:01.160Z,116.83
2019-02-02T22:26:29.986Z,122.90
2019-02-02T22:28:58.842Z,129.87
2019-02-02T22:31:27.719Z,127.23
2019-02-02T22:33:56.561Z,113.23
2019-02-02T22:36:27.579Z,116.43
2019-02-02T22:38:54.196Z,157.70
2019-02-02T22:41:22.994Z,127.10
2019-02-02T22:43:51.837Z,116.97
2019-02-02T22:46:20.643Z,117.73
2019-02-02T22:48:49.502Z,108.63
2019-02-02T22:51:18.353Z,115.47
2019-02-02T22:53:47.194Z,121.73
2019-02-02T22:56:15.993Z,113.47
2019-02-02T22:58:44.799Z,125.63
2019-02-02T23:01:23.799Z,137.67
2019-02-02T23:04:05.493Z,125.07
2019-02-02T23:06:45.077Z,107.60
2019-02-02T23:09:25.002Z,112.77
2019-02-02T23:12:06.287Z,97.77
2019-02-02T23:14:45.283Z,104.67
2019-02-02T23:17:14.083Z,82.27
2019-02-02T23:19:42.875Z,104.00
2019-02-02T23:22:11.709Z,97.47
2019-02-02T23:24:40.510Z,107.80
2019-02-02T23:27:09.374Z,113.57
2019-02-02T23:29:38.178Z,106.97
2019-02-02T23:32:07.008Z,112.63
2019-02-02T23:34:35.805Z,115.07
2019-02-02T23:37:04.615Z,122.17
2019-02-02T23:39:33.423Z,131.60
2019-02-02T23:42:02.220Z,122.53
2019-02-02T23:44:31.019Z,120.57
2019-02-02T23:46:59.824Z,119.53
2019-02-02T23:49:28.775Z,121.37
2019-02-02T23:51:57.640Z,132.33
2019-02-02T23:54:26.476Z,125.43
2019-02-02T23:56:55.276Z,122.27
2019-02-02T23:59:24.076Z,126.63
